Flinthill, Missouri
Current Conditions -  °F | °C
As of 12:54 PM on Tuesday 21 Oct 2014 (Local Time) from KSUS Reporting Station
Clear Clear  
Wind Chill: 65°   Ceiling: Unl
Heat Index: 65°   Visibility: 10mi
Dew Point: 48°   Wind: 8mph
Humidity: 54%   Direction: 30°NNE
Pressure: 30.13"   Gusts: NA
Location:  38.86°N, 90.86°W
Report Text: KSUS 211754Z 03007KT 10SM CLR 18/09 A3013 RMK AO2 SLP201 T01830089 10183 20044 58001
Loading
Personal Weather Stations






























Interactive Weather Map
Tropical Storm Tracking
New forecast layout! Learn more

10-Day Weather Forecast

Advertisements
Track Severe Weather on mobile